VYYY/RGN METAR and TAF weather

Enter ICAO airport designator
Station Type Date Time Source
VYYY METAR 2019/11/18 11:30 UTC NOAA

VYYY 181130Z 36004KT 6000 FEW020 SCT110 30/24 Q1010 NOSIG


Station Type Date Time Source
VYYY Decoded METAR 2019/11/18 11:30 UTC NOAA

Yangon, Myanmar (VYYY) 16-46N 096-10E 15M
Nov 18, 2019 - 06:30 AM EST / 2019.11.18 1130 UTC
Wind: from the N (360 degrees) at 5 MPH (4 KT):0
Visibility: 3 mile(s):0
Sky conditions: partly cloudy
Temperature: 86 F (30 C)
Heat index: 95.0 F (35.0 C):1
Dew Point: 75 F (24 C)
Relative Humidity: 70%
Pressure (altimeter): 29.83 in. Hg (1010 hPa)
ob: VYYY 181130Z 36004KT 6000 FEW020 SCT110 30/24 Q1010 NOSIG
cycle: 11

Station Type Date Time Source
VYYY TAF 2019/11/18 12:39 UTC NOAA

TAF TAF VYYY 181100Z 1812/1912 32006KT 8000 SCT018 SCT120
TEMPO 1812/1818 6000 HZ
BECMG 1823/1901 01005KT 4000 BR
TEMPO 1901/1906 04006KT

Example: see airport list